Time;durP1;ratioP1;P1;durP2;ratioP2;P2;SDS_P1;SDS_P2;PMS_P1;PMS_P2;Temp;Humidity;BMP_temperature;BMP_pressure;BME280_temperature;BME280_humidity;BME280_pressure;Samples;Min_cycle;Max_cycle;Signal;HPM_P1;HPM_P2
2022/08/11 00:01:35;;;;;;;;;8.00;8.00;;;;;27.97;27.90;101407.34;5044587;28;45503;-68
2022/08/11 00:04:05;;;;;;;;;10.00;10.00;;;;;27.87;28.22;101399.81;5059025;28;45272;-67
2022/08/11 00:06:34;;;;;;;;;10.00;9.67;;;;;27.84;27.77;101391.06;5048005;28;47885;-68
2022/08/11 00:09:02;;;;;;;;;11.67;10.33;;;;;27.82;28.19;101401.88;5058588;28;45494;-68
2022/08/11 00:11:35;;;;;;;;;8.00;8.00;;;;;27.84;28.20;101407.22;5055019;28;45392;-67
2022/08/11 00:14:02;;;;;;;;;7.33;7.33;;;;;27.83;28.06;101392.00;5056430;28;45486;-67
2022/08/11 00:16:29;;;;;;;;;9.00;9.00;;;;;27.90;27.79;101407.72;5054786;28;46140;-67
2022/08/11 00:18:57;;;;;;;;;9.33;9.33;;;;;27.83;27.78;101400.09;5055620;28;45706;-68
2022/08/11 00:21:26;;;;;;;;;10.00;10.00;;;;;27.82;27.38;101407.28;5054450;28;45505;-66
2022/08/11 00:23:55;;;;;;;;;9.33;9.33;;;;;27.81;27.69;101400.16;5054649;28;45487;-68
2022/08/11 00:26:23;;;;;;;;;8.67;8.00;;;;;27.51;27.92;101367.00;5054322;28;45497;-65
2022/08/11 00:28:51;;;;;;;;;8.67;8.67;;;;;27.55;27.82;101373.94;5054227;28;45376;-67
2022/08/11 00:31:36;;;;;;;;;9.67;9.67;;;;;27.61;27.82;101397.78;5054725;28;45506;-68
2022/08/11 00:34:09;;;;;;;;;9.67;9.67;;;;;27.48;27.73;101379.69;5054335;28;45463;-68
2022/08/11 00:36:47;;;;;;;;;10.67;10.67;;;;;27.64;27.51;101402.97;5044165;28;47538;-68
2022/08/11 00:39:16;;;;;;;;;12.00;9.00;;;;;27.61;27.55;101409.41;5053975;28;45577;-67
2022/08/11 00:41:59;;;;;;;;;9.67;9.67;;;;;27.58;28.08;101406.06;5068991;28;45406;-70
2022/08/11 00:44:47;;;;;;;;;9.33;9.33;;;;;27.50;27.70;101401.09;5062729;28;45395;-67
2022/08/11 00:47:21;;;;;;;;;10.00;10.00;;;;;27.51;27.76;101405.53;5073867;27;45457;-66
2022/08/11 00:50:04;;;;;;;;;9.00;8.00;;;;;27.53;27.93;101411.69;5074544;27;45410;-67
2022/08/11 00:52:33;;;;;;;;;7.00;7.00;;;;;27.47;27.86;101415.59;5079062;28;45509;-67
2022/08/11 00:55:35;;;;;;;;;7.00;7.00;;;;;27.45;28.11;101413.94;5077074;27;45420;-66
2022/08/11 00:58:47;;;;;;;;;10.00;8.33;;;;;27.41;28.06;101412.41;5062113;27;45900;-67
2022/08/11 01:01:15;;;;;;;;;9.67;9.33;;;;;27.45;27.71;101417.53;5057852;28;45314;-67
2022/08/11 01:04:05;;;;;;;;;11.00;9.33;;;;;27.43;27.73;101411.38;5074552;28;45485;-68
2022/08/11 01:07:18;;;;;;;;;10.00;9.33;;;;;27.33;27.88;101410.16;5062701;28;46043;-68
2022/08/11 01:09:44;;;;;;;;;10.67;10.67;;;;;27.28;28.41;101415.78;5045245;28;45544;-68
2022/08/11 01:12:18;;;;;;;;;12.00;11.00;;;;;27.19;28.42;101408.28;5071380;28;45591;-69
2022/08/11 01:14:53;;;;;;;;;10.33;10.33;;;;;27.24;27.69;101408.00;5064439;28;45494;-67
2022/08/11 01:17:49;;;;;;;;;10.33;10.33;;;;;27.22;27.81;101407.25;5076914;28;45480;-65
2022/08/11 01:20:33;;;;;;;;;10.00;9.67;;;;;27.14;28.51;101407.63;5046871;28;47549;-66
2022/08/11 01:23:07;;;;;;;;;9.00;7.67;;;;;27.15;28.29;101406.69;5073943;27;45383;-67
2022/08/11 01:25:54;;;;;;;;;7.00;7.00;;;;;27.11;28.30;101404.25;5078602;27;45457;-66
2022/08/11 01:28:56;;;;;;;;;9.33;9.33;;;;;27.07;28.56;101396.38;5060617;28;45580;-66
2022/08/11 01:31:41;;;;;;;;;7.00;7.00;;;;;27.11;28.26;101402.44;5050510;28;47371;-66
2022/08/11 01:34:25;;;;;;;;;7.00;7.00;;;;;27.13;28.64;101402.34;5074361;28;45586;-67
2022/08/11 01:37:27;;;;;;;;;7.33;7.33;;;;;27.15;28.99;101404.00;5065525;28;45394;-69
2022/08/11 01:40:20;;;;;;;;;8.00;8.00;;;;;27.16;28.26;101404.84;5071796;27;45483;-68
2022/08/11 01:46:15;;;;;;;;;7.00;7.00;;;;;27.16;28.52;101403.03;5065120;27;45331;-69
2022/08/11 01:48:56;;;;;;;;;7.33;7.33;;;;;27.14;28.08;101406.75;5074456;27;45351;-66
2022/08/11 01:52:11;;;;;;;;;7.33;7.33;;;;;27.10;27.93;101399.81;5078723;28;45556;-68
2022/08/11 01:55:17;;;;;;;;;7.00;7.00;;;;;27.08;28.10;101403.47;4990892;28;45742;-66
2022/08/11 01:58:12;;;;;;;;;9.33;8.33;;;;;27.05;28.46;101410.81;5067483;28;45461;-66
2022/08/11 02:00:57;;;;;;;;;6.00;5.00;;;;;27.00;28.50;101400.38;5076806;28;45929;-67
2022/08/11 02:03:36;;;;;;;;;7.67;7.67;;;;;26.91;28.70;101384.75;5058786;28;45374;-67
2022/08/11 02:09:32;;;;;;;;;7.00;7.00;;;;;27.06;28.23;101405.38;5072206;28;45422;-67
2022/08/11 02:12:08;;;;;;;;;7.00;7.00;;;;;26.97;28.64;101388.91;5075629;28;45536;-68
2022/08/11 02:14:43;;;;;;;;;8.00;8.00;;;;;26.98;28.84;101404.06;5058348;28;45494;-66
2022/08/11 02:17:31;;;;;;;;;8.00;8.00;;;;;26.98;28.82;101398.69;5073844;27;45600;-67
2022/08/11 02:23:40;;;;;;;;;8.33;7.00;;;;;26.87;28.63;101391.25;5060460;28;45363;-67
2022/08/11 02:26:14;;;;;;;;;7.00;7.00;;;;;26.93;28.45;101392.69;5052236;28;45420;-67
2022/08/11 02:29:09;;;;;;;;;7.25;7.25;;;;;26.89;28.70;101399.22;5073993;28;45344;-67
2022/08/11 02:34:43;;;;;;;;;7.00;7.00;;;;;26.81;28.93;101386.19;5073475;28;45449;-67
2022/08/11 02:37:26;;;;;;;;;5.33;5.33;;;;;26.87;28.18;101396.63;5073512;27;45425;-68
2022/08/11 02:40:04;;;;;;;;;9.00;8.33;;;;;26.90;28.45;101398.25;5061654;28;45440;-67
2022/08/11 02:42:36;;;;;;;;;7.00;7.00;;;;;26.84;28.47;101388.75;5072879;27;45366;-66
2022/08/11 02:45:55;;;;;;;;;8.33;6.33;;;;;26.85;28.76;101394.00;5073340;28;45540;-68
2022/08/11 02:51:29;;;;;;;;;7.33;7.33;;;;;26.68;28.92;101367.22;5069498;28;45547;-67
2022/08/11 02:54:22;;;;;;;;;9.00;8.00;;;;;26.76;28.64;101399.03;5066684;28;45270;-66
2022/08/11 02:57:10;;;;;;;;;9.67;8.33;;;;;26.72;28.67;101392.97;5077318;27;45668;-68
2022/08/11 02:59:51;;;;;;;;;7.33;7.33;;;;;26.68;29.02;101391.41;5074671;27;45509;-65
2022/08/11 03:02:30;;;;;;;;;7.67;7.00;;;;;26.60;29.17;101394.50;5075424;28;45589;-67
2022/08/11 03:05:12;;;;;;;;;7.33;7.33;;;;;26.63;29.33;101394.34;5067351;28;45354;-67
2022/08/11 03:08:07;;;;;;;;;8.00;8.00;;;;;26.68;29.19;101391.41;5076934;27;45440;-67
2022/08/11 03:17:28;;;;;;;;;8.00;8.00;;;;;26.69;30.09;101400.31;5076446;28;45472;-68
2022/08/11 03:20:27;;;;;;;;;8.00;8.00;;;;;26.68;29.84;101398.59;5076160;27;45454;-67
2022/08/11 03:23:17;;;;;;;;;9.00;9.00;;;;;26.59;29.97;101387.38;5063972;28;45445;-66
2022/08/11 03:26:16;;;;;;;;;9.00;9.00;;;;;26.65;29.97;101384.38;5047695;28;45752;-67
2022/08/11 03:28:52;;;;;;;;;10.00;9.00;;;;;26.67;30.47;101384.28;5063931;28;45481;-66
2022/08/11 03:31:34;;;;;;;;;8.00;8.00;;;;;26.65;30.06;101387.06;5057794;28;45374;-68
2022/08/11 03:34:08;;;;;;;;;7.67;7.67;;;;;26.62;30.18;101386.34;5060064;28;45477;-67
2022/08/11 03:36:57;;;;;;;;;9.00;9.00;;;;;26.53;30.66;101385.03;5055060;28;45437;-67
2022/08/11 03:39:47;;;;;;;;;14.00;12.33;;;;;26.49;30.11;101386.13;5056302;28;45454;-67
2022/08/11 03:42:19;;;;;;;;;9.00;9.00;;;;;26.43;30.18;101384.66;5065153;28;45619;-66
2022/08/11 03:45:04;;;;;;;;;10.00;10.00;;;;;26.34;30.33;101385.16;5076201;28;45485;-66
2022/08/11 03:47:42;;;;;;;;;10.00;8.67;;;;;26.38;30.38;101386.69;5067635;28;45402;-67
2022/08/11 03:50:31;;;;;;;;;9.33;9.33;;;;;26.32;30.29;101386.19;5077828;28;45494;-67
2022/08/11 03:53:33;;;;;;;;;9.67;8.00;;;;;26.36;30.84;101398.47;5080210;28;45417;-67
2022/08/11 03:56:20;;;;;;;;;8.00;8.00;;;;;26.37;31.24;101394.84;5070716;28;45284;-67
2022/08/11 03:59:10;;;;;;;;;9.67;8.67;;;;;26.33;30.49;101395.97;5076467;27;45383;-69
2022/08/11 04:01:54;;;;;;;;;8.00;8.00;;;;;26.39;30.16;101384.91;5075600;28;45880;-68
2022/08/11 04:04:57;;;;;;;;;9.33;7.00;;;;;26.41;30.01;101381.19;5075860;27;45332;-67
2022/08/11 04:07:37;;;;;;;;;8.00;8.00;;;;;26.36;30.14;101387.75;5061508;28;45475;-67
2022/08/11 04:10:09;;;;;;;;;6.00;6.00;;;;;26.33;30.12;101380.72;5074948;27;45450;-67
2022/08/11 04:13:04;;;;;;;;;7.33;7.33;;;;;26.22;30.45;101361.66;5075534;28;45561;-68
2022/08/11 04:16:01;;;;;;;;;9.33;9.33;;;;;26.30;29.79;101382.72;5057139;28;45312;-65
2022/08/11 04:18:51;;;;;;;;;9.33;9.33;;;;;26.33;30.25;101385.22;5076227;27;45719;-67
2022/08/11 04:21:35;;;;;;;;;9.33;9.00;;;;;26.24;29.90;101381.22;5049939;28;47790;-67
2022/08/11 04:24:34;;;;;;;;;9.00;9.00;;;;;26.00;30.10;101381.56;5079585;27;45530;-68
2022/08/11 04:27:21;;;;;;;;;8.67;8.67;;;;;26.03;30.30;101385.94;5076027;28;45469;-65
2022/08/11 04:30:02;;;;;;;;;9.00;9.00;;;;;26.11;29.96;101393.56;5064096;28;45874;-66
2022/08/11 04:32:38;;;;;;;;;7.67;7.33;;;;;26.17;30.35;101393.22;5075222;28;46184;-68
2022/08/11 04:35:09;;;;;;;;;7.67;7.67;;;;;26.18;29.97;101381.56;5074988;27;45553;-68
2022/08/11 04:37:59;;;;;;;;;8.67;8.67;;;;;26.11;30.05;101370.25;5075253;28;45457;-68
2022/08/11 04:40:49;;;;;;;;;8.33;8.00;;;;;26.06;30.51;101358.91;5063675;28;45335;-69
2022/08/11 04:43:34;;;;;;;;;7.00;7.00;;;;;26.15;30.54;101390.63;5074364;28;46558;-68
2022/08/11 04:46:02;;;;;;;;;10.67;10.67;;;;;26.13;30.42;101387.16;5075939;28;45374;-68
2022/08/11 05:05:29;;;;;;;;;9.33;9.00;;;;;25.97;29.36;101386.22;5075139;27;45427;-67
2022/08/11 05:07:12;;;;;;;;;10.00;10.00;;;;;26.01;29.12;101388.69;5075745;28;45823;-67
2022/08/11 05:10:18;;;;;;;;;11.67;11.67;;;;;25.95;29.43;101398.84;5077599;28;45456;-68
2022/08/11 05:12:54;;;;;;;;;10.67;10.67;;;;;25.79;29.37;101393.38;5042281;28;45422;-68
2022/08/11 05:35:54;;;;;;;;;8.00;8.00;;;;;25.85;29.90;101408.31;5056650;28;45536;-68
2022/08/11 05:58:02;;;;;;;;;12.00;10.67;;;;;26.40;28.85;101419.72;5054203;28;45414;-69
2022/08/11 06:00:29;;;;;;;;;10.67;10.33;;;;;26.33;29.68;101425.50;5054654;28;45679;-72
2022/08/11 06:02:59;;;;;;;;;12.00;12.00;;;;;26.35;29.87;101434.34;5064741;28;46853;-68
2022/08/11 06:05:38;;;;;;;;;7.67;7.67;;;;;26.53;29.79;101433.38;5053533;28;45407;-68
2022/08/11 06:08:08;;;;;;;;;10.00;10.00;;;;;26.61;30.07;101435.69;5054664;28;45491;-68
2022/08/11 06:10:36;;;;;;;;;12.33;9.33;;;;;26.61;29.30;101444.59;5055780;28;45887;-68
2022/08/11 06:13:04;;;;;;;;;10.67;9.00;;;;;26.68;29.55;101433.53;5053331;28;46047;-69
2022/08/11 06:15:32;;;;;;;;;12.33;10.33;;;;;26.71;29.78;101433.34;5049520;28;45465;-69
2022/08/11 06:18:01;;;;;;;;;12.67;12.67;;;;;26.74;29.38;101436.75;5060733;28;45493;-68
2022/08/11 06:20:36;;;;;;;;;14.00;12.33;;;;;26.93;29.48;101436.56;5066669;28;45414;-69
2022/08/11 06:23:05;;;;;;;;;15.67;14.33;;;;;26.99;29.87;101438.94;5059687;28;46479;-69
2022/08/11 06:26:29;;;;;;;;;14.00;12.33;;;;;27.12;28.64;101440.94;5066540;27;45358;-68
2022/08/11 06:28:58;;;;;;;;;15.33;12.33;;;;;27.19;29.52;101445.00;5070576;27;45460;-69
2022/08/11 06:31:24;;;;;;;;;13.00;11.67;;;;;27.30;29.45;101434.53;5060459;28;45812;-68
2022/08/11 06:33:49;;;;;;;;;10.67;10.67;;;;;27.29;28.32;101451.66;5061935;28;45793;-68
2022/08/11 06:36:33;;;;;;;;;14.67;12.33;;;;;27.32;28.66;101451.47;5066568;28;46124;-68
2022/08/11 06:39:17;;;;;;;;;11.33;10.67;;;;;27.33;27.72;101449.63;5060113;28;45429;-70
2022/08/11 06:41:52;;;;;;;;;12.67;12.00;;;;;27.32;28.15;101447.91;5050411;28;45333;-68
2022/08/11 06:44:28;;;;;;;;;13.00;12.33;;;;;27.18;27.98;101425.31;5050340;28;45468;-70
2022/08/11 06:46:59;;;;;;;;;10.67;9.67;;;;;27.31;28.42;101441.66;5051094;28;45953;-69
2022/08/11 06:52:26;;;;;;;;;13.00;12.00;;;;;27.31;28.76;101444.34;5050461;28;46101;-68
2022/08/11 06:54:56;;;;;;;;;13.00;12.67;;;;;27.01;28.24;101414.66;5049614;28;45633;-68
2022/08/11 07:02:59;;;;;;;;;11.00;11.00;;;;;27.43;27.93;101440.97;5049553;28;45555;-69
2022/08/11 07:05:43;;;;;;;;;15.00;11.67;;;;;27.52;28.01;101444.06;5050442;28;45391;-69
2022/08/11 07:17:19;;;;;;;;;12.00;12.00;;;;;27.85;27.07;101452.88;5050231;28;45538;-68
2022/08/11 07:31:12;;;;;;;;;16.67;16.00;;;;;27.61;27.53;101443.53;5069517;27;45951;-69
2022/08/11 07:34:02;;;;;;;;;13.00;13.00;;;;;27.60;27.89;101450.75;5069330;28;45600;-70
2022/08/11 07:36:30;;;;;;;;;14.00;11.00;;;;;27.68;27.34;101444.91;5063955;28;45476;-69
2022/08/11 07:38:57;;;;;;;;;11.33;10.67;;;;;27.75;27.75;101431.97;5056881;28;45450;-69
2022/08/11 07:41:24;;;;;;;;;12.67;11.33;;;;;27.88;27.39;101443.75;5054219;28;45504;-69
2022/08/11 07:44:07;;;;;;;;;11.33;10.00;;;;;27.90;27.92;101439.16;5076265;28;45548;-68
2022/08/11 07:54:54;;;;;;;;;11.33;11.00;;;;;27.79;27.77;101422.75;5076093;27;45382;-69
2022/08/11 08:19:24;;;;;;;;;9.00;9.00;;;;;28.62;27.17;101415.06;5080552;27;45307;-69
2022/08/11 08:21:51;;;;;;;;;10.00;10.00;;;;;28.70;27.26;101418.97;5075692;27;45551;-69
2022/08/11 08:24:19;;;;;;;;;8.33;8.33;;;;;28.70;27.57;101408.19;5075188;27;46522;-68
2022/08/11 08:26:57;;;;;;;;;9.00;9.00;;;;;28.78;27.92;101390.66;5076707;27;45530;-68
2022/08/11 08:32:15;;;;;;;;;11.67;11.00;;;;;29.05;27.18;101432.03;5075748;28;45532;-68
2022/08/11 08:34:42;;;;;;;;;12.67;11.00;;;;;29.03;27.11;101431.25;5075251;27;46595;-77
2022/08/11 08:37:09;;;;;;;;;9.00;9.00;;;;;29.00;27.29;101436.84;5078124;27;45819;-75
2022/08/11 08:39:36;;;;;;;;;9.67;9.67;;;;;28.93;27.12;101436.38;5065873;28;45257;-76
2022/08/11 08:42:13;;;;;;;;;10.33;10.33;;;;;29.03;27.04;101430.41;5078287;27;45355;-76
2022/08/11 08:44:41;;;;;;;;;9.67;9.67;;;;;29.15;27.36;101435.03;5078713;27;46154;-71
2022/08/11 08:47:12;;;;;;;;;12.00;9.67;;;;;29.08;26.75;101418.38;5075768;28;45487;-71
2022/08/11 08:49:47;;;;;;;;;10.00;10.00;;;;;29.16;27.14;101437.63;5074667;28;46595;-72
2022/08/11 08:52:16;;;;;;;;;11.00;11.00;;;;;29.24;27.10;101439.81;5075130;28;45465;-71
2022/08/11 08:54:44;;;;;;;;;10.67;10.67;;;;;29.24;26.32;101417.38;5078071;27;45590;-72
2022/08/11 08:57:19;;;;;;;;;12.67;11.67;;;;;29.40;27.17;101439.69;5074180;27;45513;-71
2022/08/11 08:59:48;;;;;;;;;11.33;11.33;;;;;29.44;26.51;101429.53;5076011;28;45534;-70
2022/08/11 09:02:15;;;;;;;;;10.00;10.00;;;;;29.48;27.05;101431.94;5076915;27;45752;-72
2022/08/11 09:04:44;;;;;;;;;11.67;9.33;;;;;29.53;26.55;101427.09;5076137;27;46013;-71
2022/08/11 09:07:14;;;;;;;;;9.00;9.00;;;;;29.64;26.27;101429.06;5076368;28;45392;-71
2022/08/11 09:09:51;;;;;;;;;12.00;10.33;;;;;29.71;25.84;101433.13;5075241;27;45486;-72
2022/08/11 09:12:19;;;;;;;;;12.33;12.00;;;;;29.73;26.40;101428.50;5075344;28;45500;-71
2022/08/11 09:15:03;;;;;;;;;12.67;10.00;;;;;29.72;26.13;101426.75;5075110;27;45372;-74
2022/08/11 09:17:39;;;;;;;;;13.00;10.33;;;;;29.76;26.70;101428.28;5075096;28;45314;-73
2022/08/11 09:20:13;;;;;;;;;9.75;9.50;;;;;29.85;25.95;101434.00;5075110;27;45320;-73
2022/08/11 09:28:16;;;;;;;;;10.67;10.67;;;;;29.84;26.35;101398.03;5054508;28;46040;-74
2022/08/11 09:30:44;;;;;;;;;11.00;9.00;;;;;29.96;26.31;101413.38;5073061;27;45521;-73
2022/08/11 09:33:14;;;;;;;;;7.50;7.50;;;;;30.09;25.85;101420.63;5058382;28;45574;-74
2022/08/11 09:35:45;;;;;;;;;9.00;9.00;;;;;30.16;25.18;101403.03;5057710;28;45536;-73
2022/08/11 09:41:00;;;;;;;;;11.00;9.00;;;;;30.15;25.64;101385.97;5071181;28;45248;-72
2022/08/11 09:46:12;;;;;;;;;11.00;11.00;;;;;30.32;25.17;101400.16;5070524;28;45431;-73
2022/08/11 09:48:45;;;;;;;;;10.25;10.25;;;;;30.37;24.58;101403.38;5074202;28;45464;-73
2022/08/11 09:51:16;;;;;;;;;8.75;8.75;;;;;30.40;25.21;101397.78;5059501;28;45423;-74
2022/08/11 09:53:43;;;;;;;;;7.00;7.00;;;;;30.50;25.47;101401.56;5063491;28;45491;-74
2022/08/11 09:59:00;;;;;;;;;9.50;9.50;;;;;30.63;24.04;101397.00;5060323;28;45724;-74
2022/08/11 10:01:30;;;;;;;;;10.50;10.50;;;;;30.66;24.27;101404.03;5056006;28;45817;-73
2022/08/11 10:04:02;;;;;;;;;9.50;9.50;;;;;30.60;23.68;101390.94;5074109;27;45671;-72
2022/08/11 10:09:18;;;;;;;;;9.25;9.25;;;;;30.63;23.94;101366.38;5074082;27;45731;-74
2022/08/11 10:11:45;;;;;;;;;9.00;8.25;;;;;30.61;24.17;101341.28;5074306;28;45429;-74
2022/08/11 10:16:57;;;;;;;;;11.00;11.00;;;;;30.81;22.67;101386.66;5064041;27;45959;-68
2022/08/11 10:19:23;;;;;;;;;12.00;11.00;;;;;30.91;22.42;101391.44;5055588;28;45852;-67
2022/08/11 10:27:26;;;;;;;;;11.00;11.00;;;;;30.79;22.62;101366.97;5070105;28;45494;-68
2022/08/11 10:35:25;;;;;;;;;12.75;11.50;;;;;31.10;23.14;101367.44;5060906;28;45602;-68
2022/08/11 10:37:53;;;;;;;;;10.00;9.50;;;;;31.13;23.05;101352.81;5064670;28;46198;-69
2022/08/11 10:40:21;;;;;;;;;10.25;10.25;;;;;31.36;22.77;101370.91;5070552;28;45739;-68
2022/08/11 10:43:05;;;;;;;;;10.25;9.25;;;;;31.44;22.05;101354.97;5074581;28;45467;-67
2022/08/11 10:48:24;;;;;;;;;9.75;9.75;;;;;31.62;21.70;101344.56;5072363;27;45415;-67
2022/08/11 10:59:27;;;;;;;;;9.25;9.25;;;;;31.85;21.31;101358.19;5011036;28;45814;-68
2022/08/11 11:01:54;;;;;;;;;11.00;9.75;;;;;31.87;21.24;101345.38;5037560;28;45395;-68
2022/08/11 11:04:43;;;;;;;;;9.75;9.75;;;;;31.94;22.16;101351.16;5074866;28;45188;-67
2022/08/11 11:07:23;;;;;;;;;11.50;11.50;;;;;31.92;21.68;101343.16;5075578;28;45327;-68
2022/08/11 11:09:54;;;;;;;;;9.25;9.25;;;;;31.86;21.27;101311.13;5072846;28;46074;-69
2022/08/11 11:18:06;;;;;;;;;9.25;9.25;;;;;32.27;21.07;101334.97;5073360;28;45375;-67
2022/08/11 11:20:39;;;;;;;;;10.75;10.75;;;;;32.25;21.61;101319.84;5071235;27;46444;-67
2022/08/11 11:23:27;;;;;;;;;10.00;10.00;;;;;32.30;21.55;101317.59;5067495;28;45477;-68
2022/08/11 11:26:30;;;;;;;;;9.50;9.00;;;;;32.53;21.32;101313.91;5065823;27;45374;-67
2022/08/11 11:29:15;;;;;;;;;12.25;12.25;;;;;32.69;20.73;101312.66;5057016;28;45988;-68
2022/08/11 11:32:10;;;;;;;;;11.50;10.75;;;;;32.74;21.34;101319.41;5056057;27;45454;-68
2022/08/11 11:34:45;;;;;;;;;10.00;10.00;;;;;32.92;21.05;101308.03;5056020;28;45891;-67
2022/08/11 11:37:13;;;;;;;;;12.00;11.50;;;;;33.01;20.64;101298.22;5056073;28;45419;-69
2022/08/11 11:39:39;;;;;;;;;10.50;10.50;;;;;33.16;20.86;101308.69;5061321;27;45316;-67
2022/08/11 11:42:08;;;;;;;;;13.00;11.75;;;;;33.19;20.13;101306.72;5076229;27;45662;-69
2022/08/11 11:44:38;;;;;;;;;11.50;11.50;;;;;33.20;20.27;101314.75;5076142;28;45531;-66
2022/08/11 11:47:05;;;;;;;;;11.50;11.50;;;;;33.19;19.98;101299.44;5076295;28;45266;-67
2022/08/11 11:49:32;;;;;;;;;11.50;11.00;;;;;33.12;20.46;101306.38;5078892;27;45401;-68
2022/08/11 11:51:59;;;;;;;;;12.00;11.50;;;;;32.99;20.23;101301.09;5060704;28;45418;-67
2022/08/11 11:54:32;;;;;;;;;11.75;11.75;;;;;33.06;20.62;101298.75;5075512;27;45390;-67
2022/08/11 12:01:14;;;;;;;;;13.00;13.00;;;;;32.98;20.41;101271.38;5074932;28;45453;-68
2022/08/11 12:02:35;;;;;;;;;12.25;10.50;;;;;33.34;19.60;101297.25;5070104;28;45895;-66
2022/08/11 12:05:01;;;;;;;;;11.75;11.00;;;;;33.19;19.69;101276.88;5065852;28;45530;-65
2022/08/11 12:10:13;;;;;;;;;13.00;12.50;;;;;32.98;20.06;101309.34;5074026;28;45393;-69
2022/08/11 12:15:23;;;;;;;;;10.75;10.75;;;;;32.99;19.80;101289.38;5069465;27;45291;-68
2022/08/11 12:17:50;;;;;;;;;10.75;9.75;;;;;33.08;20.32;101283.19;5074394;28;45449;-68
2022/08/11 12:20:20;;;;;;;;;10.75;10.75;;;;;33.11;18.94;101277.53;5074314;28;45580;-64
2022/08/11 12:28:17;;;;;;;;;11.25;9.25;;;;;33.68;20.20;101268.09;5079576;27;45398;-67
2022/08/11 12:30:46;;;;;;;;;10.25;10.25;;;;;33.85;19.53;101276.59;5080899;27;45425;-66
2022/08/11 12:33:13;;;;;;;;;11.25;11.25;;;;;33.91;19.06;101274.22;5075481;27;46536;-65
2022/08/11 12:35:39;;;;;;;;;10.50;10.50;;;;;33.83;18.65;101256.88;5076033;27;45613;-68
2022/08/11 12:38:06;;;;;;;;;12.50;11.75;;;;;33.85;18.47;101249.44;5071834;28;45495;-68
2022/08/11 12:46:30;;;;;;;;;11.50;10.50;;;;;33.92;19.43;101250.63;5074652;28;45504;-67
2022/08/11 12:52:00;;;;;;;;;10.50;10.50;;;;;34.03;19.13;101239.66;5089557;27;45352;-68
2022/08/11 12:54:48;;;;;;;;;11.00;11.00;;;;;34.22;18.98;101249.75;5074714;28;45389;-68
2022/08/11 13:05:32;;;;;;;;;10.75;10.75;;;;;34.54;18.46;101251.41;5073985;28;45814;-65
2022/08/11 13:08:00;;;;;;;;;11.00;11.00;;;;;34.54;18.38;101213.31;5076223;28;45489;-68
2022/08/11 13:13:13;;;;;;;;;13.00;12.00;;;;;34.65;18.53;101228.69;5074478;28;45653;-65
2022/08/11 13:15:40;;;;;;;;;9.75;9.75;;;;;34.47;18.24;101199.44;5074634;27;45367;-67
2022/08/11 13:18:06;;;;;;;;;10.60;10.60;;;;;34.61;18.15;101242.56;5074454;28;45359;-67
2022/08/11 13:20:33;;;;;;;;;12.75;12.50;;;;;34.58;17.67;101233.81;5076352;27;45446;-66
2022/08/11 13:23:06;;;;;;;;;9.25;9.25;;;;;34.50;18.21;101237.22;5076728;27;45323;-66
2022/08/11 13:25:32;;;;;;;;;13.00;12.50;;;;;34.54;18.17;101237.81;5056270;28;47232;-64
2022/08/11 13:27:59;;;;;;;;;13.00;10.60;;;;;34.61;18.36;101237.13;5074386;28;45492;-66
2022/08/11 13:33:18;;;;;;;;;12.00;10.00;;;;;34.79;18.89;101214.66;5079801;27;45350;-66
2022/08/11 13:35:50;;;;;;;;;10.00;10.00;;;;;34.96;18.73;101224.81;5093250;27;46070;-66
2022/08/11 13:38:18;;;;;;;;;11.25;11.25;;;;;35.00;18.53;101219.94;5069783;27;45362;-65
2022/08/11 13:40:45;;;;;;;;;10.25;10.25;;;;;34.87;18.74;101194.91;5065464;28;45576;-65
2022/08/11 13:43:13;;;;;;;;;12.50;11.75;;;;;35.10;18.72;101225.41;5074307;28;45814;-66
2022/08/11 13:45:40;;;;;;;;;10.50;10.50;;;;;35.11;18.56;101208.09;5074237;28;46545;-66
2022/08/11 13:48:09;;;;;;;;;11.50;11.50;;;;;35.23;18.37;101213.22;5072800;27;45475;-73
2022/08/11 13:53:23;;;;;;;;;16.00;13.00;;;;;34.90;18.84;101219.94;5077348;28;45667;-64
2022/08/11 13:55:50;;;;;;;;;11.00;10.75;;;;;34.77;18.88;101197.63;5072991;27;45905;-63
2022/08/11 13:58:16;;;;;;;;;11.20;11.20;;;;;34.88;18.49;101202.91;5061682;27;45469;-67
2022/08/11 14:00:51;;;;;;;;;12.75;11.50;;;;;34.97;19.08;101198.47;5066525;27;45445;-66
2022/08/11 14:03:25;;;;;;;;;10.75;10.75;;;;;35.02;18.21;101217.94;5058936;27;45631;-65
2022/08/11 14:05:55;;;;;;;;;10.75;10.75;;;;;35.03;17.81;101212.34;5075011;27;46286;-65
2022/08/11 14:08:26;;;;;;;;;12.00;11.00;;;;;34.96;18.08;101218.53;5070168;28;45513;-65
2022/08/11 14:13:44;;;;;;;;;9.25;9.25;;;;;34.76;18.51;101206.78;5061199;27;45477;-66
2022/08/11 14:16:25;;;;;;;;;15.50;12.75;;;;;34.80;18.36;101197.34;5051808;28;45780;-65
2022/08/11 14:18:56;;;;;;;;;14.75;13.50;;;;;34.64;18.30;101206.06;5065488;28;45585;-66
2022/08/11 14:24:10;;;;;;;;;11.75;11.75;;;;;34.54;18.18;101192.41;5074645;28;45398;-69
2022/08/11 14:26:43;;;;;;;;;12.75;12.75;;;;;34.60;19.16;101193.75;5078869;27;45372;-66
2022/08/11 14:29:15;;;;;;;;;14.50;14.50;;;;;34.72;18.38;101197.19;5073604;27;45532;-68
2022/08/11 14:31:57;;;;;;;;;15.25;13.50;;;;;34.55;18.73;101190.56;5071805;28;45469;-69
2022/08/11 14:34:28;;;;;;;;;12.00;11.50;;;;;34.51;18.46;101184.56;5063511;28;45536;-66
2022/08/11 14:37:04;;;;;;;;;14.25;12.25;;;;;34.53;18.83;101184.44;5072831;27;45418;-70
2022/08/11 14:39:39;;;;;;;;;13.75;13.75;;;;;34.54;19.05;101184.25;5058592;28;45808;-67
2022/08/11 14:47:51;;;;;;;;;12.25;12.25;;;;;34.70;19.26;101155.69;5044114;28;46546;-67
2022/08/11 14:50:24;;;;;;;;;11.60;10.00;;;;;34.93;18.68;101159.81;5075601;27;45393;-67
2022/08/11 14:52:54;;;;;;;;;13.25;12.75;;;;;34.89;17.65;101149.34;5080307;27;45520;-72
2022/08/11 14:58:17;;;;;;;;;14.50;13.75;;;;;35.01;17.90;101156.34;5081899;27;45542;-72
2022/08/11 15:00:43;;;;;;;;;13.00;12.40;;;;;34.85;18.05;101143.34;5074900;27;45466;-66
2022/08/11 15:03:12;;;;;;;;;12.75;12.25;;;;;34.78;18.07;101140.31;5087925;27;45533;-71
2022/08/11 15:05:40;;;;;;;;;13.00;12.25;;;;;34.81;18.17;101147.34;5082730;27;45448;-73
2022/08/11 15:08:08;;;;;;;;;12.75;12.75;;;;;34.70;18.66;101140.22;5076409;28;45560;-68
2022/08/11 15:10:34;;;;;;;;;12.75;12.75;;;;;34.61;18.72;101143.78;5076383;28;45678;-69
2022/08/11 15:13:00;;;;;;;;;13.25;13.25;;;;;34.64;18.72;101146.22;5077855;27;45577;-69
2022/08/11 15:18:16;;;;;;;;;10.25;10.25;;;;;35.00;18.04;101130.13;5058475;28;45942;-67
2022/08/11 15:37:25;;;;;;;;;13.00;13.00;;;;;35.15;17.33;101127.84;5065332;28;45526;-67
2022/08/11 15:37:42;;;;;;;;;17.75;15.75;;;;;34.65;18.14;101106.28;5061536;28;45577;-68
2022/08/11 15:46:01;;;;;;;;;13.50;12.75;;;;;34.87;17.81;101135.88;5056695;28;45346;-66
2022/08/11 15:48:27;;;;;;;;;13.00;13.00;;;;;34.90;18.09;101132.88;5059507;27;46208;-65
2022/08/11 15:50:56;;;;;;;;;12.50;11.75;;;;;34.69;18.12;101102.25;5057789;27;46094;-65
2022/08/11 15:53:32;;;;;;;;;13.75;13.25;;;;;34.82;18.89;101113.69;5061501;27;45822;-64
2022/08/11 15:56:00;;;;;;;;;13.00;13.00;;;;;34.87;18.77;101114.13;5037341;28;45512;-66
2022/08/11 16:04:11;;;;;;;;;12.40;11.00;;;;;35.05;18.18;101112.38;5056254;28;45616;-66
2022/08/11 16:06:48;;;;;;;;;14.00;13.25;;;;;34.96;18.59;101113.25;5055437;28;45811;-67
2022/08/11 16:09:18;;;;;;;;;11.25;11.25;;;;;34.92;18.33;101111.81;5055382;28;45379;-66
2022/08/11 16:11:45;;;;;;;;;13.75;11.50;;;;;34.99;18.61;101122.97;5055022;28;45555;-66
2022/08/11 16:16:58;;;;;;;;;13.50;13.00;;;;;34.71;18.40;101102.97;5055849;28;45286;-66
2022/08/11 16:19:27;;;;;;;;;15.25;13.25;;;;;34.60;18.57;101102.13;5055024;28;45469;-65
2022/08/11 16:21:56;;;;;;;;;13.75;13.75;;;;;34.41;18.32;101100.25;5054657;28;46288;-67
2022/08/11 16:24:27;;;;;;;;;15.00;11.00;;;;;34.29;18.49;101097.78;5054326;28;45584;-66
2022/08/11 16:26:54;;;;;;;;;14.75;13.25;;;;;34.19;18.44;101098.69;5036495;28;46126;-66
2022/08/11 16:29:24;;;;;;;;;12.00;12.00;;;;;34.12;18.45;101102.97;5055006;28;45678;-67